WEATHER DATA

YESTERDAY
Time Temp. Dewp. Hum. Bar. 1h Prec. 24h Prec.
00:08 8.1 0.8 60 1023.8 0.0000 0.0000
00:18 7.5 0.5 61 1023.7 0.0000 0.0000
00:27 7.1 0.3 62 1023.7 0.0000 0.0000
00:38 6.7 0.2 63 1023.7 0.0000 0.0000
00:48 6.4 -0.1 63 1023.7 0.0000 0.0000
00:58 6.1 -0.2 64 1023.7 0.0000 0.0000
01:08 6.3 0.4 66 1023.8 0.0000 0.0000
01:18 6.8 0.9 66 1023.8 0.0000 0.0000
01:28 6.8 0.9 66 1023.7 0.0000 0.0000
01:38 6.7 0.8 66 1023.7 0.0000 0.0000
01:48 6.5 0.6 66 1023.5 0.0000 0.0000
01:58 6.2 0.5 67 1023.5 0.0000 0.0000
02:08 6 0.3 67 1023.5 0.0000 0.0000
02:19 5.9 0.5 68 1023.4 0.0000 0.0000
02:28 5.8 0.6 69 1023.2 0.0000 0.0000
02:38 5.6 0.4 69 1023.2 0.0000 0.0000
02:48 5.2 0 69 1023.2 0.0000 0.0000
02:58 5.2 0.2 70 1023.2 0.0000 0.0000
03:08 5.3 0.5 71 1023.2 0.0000 0.0000
03:18 5.4 0.8 72 1023.1 0.0000 0.0000
03:29 5.4 0.8 72 1023 0.0000 0.0000
03:39 5.5 1.1 73 1022.9 0.0000 0.0000
03:49 5.5 1.1 73 1022.9 0.0000 0.0000
03:58 5.2 0.6 72 1022.9 0.0000 0.0000
04:09 4.7 0.1 72 1022.9 0.0000 0.0000
04:19 4.4 -0.2 72 1022.9 0.0000 0.0000
04:29 4.1 -0.3 73 1022.8 0.0000 0.0000
04:39 3.8 -0.5 73 1022.9 0.0000 0.0000
04:49 3.6 -0.7 73 1022.8 0.0000 0.0000
04:59 3.4 -0.7 74 1022.9 0.0000 0.0000
05:09 3.2 -0.9 74 1022.9 0.0000 0.0000
05:20 3.1 -1 74 1022.8 0.0000 0.0000
05:30 2.9 -1 75 1022.8 0.0000 0.0000
05:39 2.8 -1 75 1022.8 0.0000 0.0000
05:50 2.7 -1.1 75 1022.8 0.0000 0.0000
06:00 2.7 -1.1 75 1023 0.0000 0.0000
06:10 2.5 -1.1 76 1023 0.0000 0.0000
06:19 2.4 -1.2 76 1023.1 0.0000 0.0000
06:30 2.4 -1.2 76 1023.1 0.0000 0.0000
06:40 2.3 -1.3 76 1023 0.0000 0.0000
06:50 2.3 -1.2 77 1022.9 0.0000 0.0000
07:00 2.4 -1.1 77 1022.9 0.0000 0.0000
07:10 2.5 -1 77 1023 0.0000 0.0000
07:20 2.7 -0.8 77 1022.9 0.0000 0.0000
07:30 3 -0.4 78 1023 0.0000 0.0000
07:41 3.4 -0.1 78 1023 0.0000 0.0000
07:50 3.8 0.3 78 1023 0.0000 0.0000
08:00 4.2 0.7 78 1023 0.0000 0.0000
08:11 4.7 1.2 78 1023 0.0000 0.0000
08:21 5.3 1.8 78 1023.1 0.0000 0.0000
08:30 5.7 2.2 78 1023.2 0.0000 0.0000
08:40 6.1 2.6 78 1023.1 0.0000 0.0000
08:51 6.5 2.8 77 1023.1 0.0000 0.0000
09:01 6.9 3.2 77 1023 0.0000 0.0000
09:10 7.3 3.5 77 1022.9 0.0000 0.0000
09:21 7.7 3.9 77 1022.9 0.0000 0.0000
09:38 8.1 4.3 77 1023 0.0000 0.0000
09:48 8.5 4.5 76 1022.8 0.0000 0.0000
10:08 9.2 5 75 1022.6 0.0000 0.0000
10:18 9.6 5.4 75 1022.6 0.0000 0.0000
10:28 10 5.6 74 1022.5 0.0000 0.0000
10:38 10.3 5.9 74 1022.4 0.0000 0.0000
10:48 10.7 6.1 73 1022.4 0.0000 0.0000
10:58 11.3 6.6 73 1022.3 0.0000 0.0000
11:11 11.8 6.9 72 1022.2 0.0000 0.0000
11:21 12.2 7.1 71 1022.2 0.0000 0.0000
11:31 12.4 7.1 70 1022.1 0.0000 0.0000
11:42 12.8 7.3 69 1022.1 0.0000 0.0000
11:51 13.2 7.6 69 1022 0.0000 0.0000
12:01 13.5 7.3 66 1021.9 0.0000 0.0000
12:12 13.8 7.3 65 1021.9 0.0000 0.0000
12:22 14.1 7.4 64 1021.7 0.0000 0.0000
12:31 14.5 8 65 1021.6 0.0000 0.0000
12:41 14.8 8.3 65 1021.5 0.0000 0.0000
12:52 15.2 8.4 64 1021.4 0.0000 0.0000
13:02 15.6 8.6 63 1021.3 0.0000 0.0000
13:11 15.9 8.4 61 1021.2 0.0000 0.0000
13:22 16.2 8.2 59 1021.1 0.0000 0.0000
13:32 16.4 7.6 56 1020.9 0.0000 0.0000
13:42 16.6 7.5 55 1020.9 0.0000 0.0000
13:52 16.9 7.5 54 1020.7 0.0000 0.0000
14:02 16.9 6.4 50 1020.7 0.0000 0.0000
14:12 17 6.5 50 1020.5 0.0000 0.0000
14:22 17 6.2 49 1020.5 0.0000 0.0000
14:32 17 6.2 49 1020.5 0.0000 0.0000
14:42 17 5.6 47 1020.4 0.0000 0.0000
14:52 17.1 5.7 47 1020.4 0.0000 0.0000
15:02 17.1 5.7 47 1020.2 0.0000 0.0000
15:12 17.1 5.4 46 1020.2 0.0000 0.0000
15:22 17.1 5.4 46 1020 0.0000 0.0000
15:32 17.1 5.1 45 1020 0.0000 0.0000
15:42 17.1 5.1 45 1019.9 0.0000 0.0000
15:52 17.1 5.1 45 1019.9 0.0000 0.0000
16:02 17 5 45 1019.9 0.0000 0.0000
16:12 16.9 4.9 45 1019.8 0.0000 0.0000
16:22 16.9 4.6 44 1019.9 0.0000 0.0000
16:32 16.7 4.4 44 1019.8 0.0000 0.0000
16:42 16.7 4.7 45 1019.9 0.0000 0.0000
16:53 16.4 4.4 45 1019.9 0.0000 0.0000
17:02 16.2 3.9 44 1019.8 0.0000 0.0000
17:12 16.2 3.9 44 1019.9 0.0000 0.0000
17:23 16 4.1 45 1019.9 0.0000 0.0000
17:33 15.8 3.9 45 1019.9 0.0000 0.0000
17:42 15.6 4 46 1019.9 0.0000 0.0000
17:52 15.4 3.9 46 1019.9 0.0000 0.0000
18:03 15.3 3.8 46 1020 0.0000 0.0000
18:13 15 3.5 46 1020.1 0.0000 0.0000
18:22 14.8 3.3 46 1020.1 0.0000 0.0000
18:33 14.5 3.3 47 1020.2 0.0000 0.0000
18:43 14.3 3.2 47 1020.3 0.0000 0.0000
18:53 13.7 3.5 50 1020.6 0.0000 0.0000
19:03 13.2 3.8 53 1020.8 0.0000 0.0000
19:12 12.9 4.1 55 1020.8 0.0000 0.0000
19:22 12.4 3.9 56 1021.1 0.0000 0.0000
19:32 12.1 3.8 57 1021.2 0.0000 0.0000
19:43 11.9 3.9 58 1021.2 0.0000 0.0000
19:53 11.6 3.9 59 1021.2 0.0000 0.0000
20:02 11.4 3.9 60 1021.4 0.0000 0.0000
20:13 11.1 3.6 60 1021.4 0.0000 0.0000
20:23 10.9 3.7 61 1021.5 0.0000 0.0000
20:33 10.7 3.7 62 1021.5 0.0000 0.0000
20:43 10.6 3.6 62 1021.5 0.0000 0.0000
20:53 10.4 3.4 62 1021.5 0.0000 0.0000
21:03 10.2 3.5 63 1021.6 0.0000 0.0000
21:13 9.9 3.2 63 1021.7 0.0000 0.0000
21:23 9.7 3.2 64 1021.8 0.0000 0.0000
21:33 9.7 3.2 64 1021.8 0.0000 0.0000
21:43 9.5 3 64 1021.7 0.0000 0.0000
21:53 9.3 2.8 64 1021.8 0.0000 0.0000
22:04 9.2 2.8 64 1021.7 0.0000 0.0000
22:13 9 2.6 64 1021.7 0.0000 0.0000
22:23 8.9 2.7 65 1021.8 0.0000 0.0000
22:34 8.6 2.4 65 1021.7 0.0000 0.0000
22:44 8.5 2.3 65 1021.6 0.0000 0.0000
22:53 8.2 2.2 66 1021.6 0.0000 0.0000
23:03 8 2 66 1021.4 0.0000 0.0000
23:14 8 2.3 67 1021.4 0.0000 0.0000
23:24 7.9 2.2 67 1021.3 0.0000 0.0000
23:33 7.8 2.1 67 1021.2 0.0000 0.0000
23:44 7.6 1.9 67 1021.2 0.0000 0.0000
23:54 7.4 1.7 67 1020.9 0.0000 0.0000

DAY STATISTIC

2019-03-24
TEMPERATURE
AVERAGE
9.8
HIGH
17.1
14:52
LOW
2.3
06:40
PRESSURE
AVERAGE
1021.9
HIGH
1023.8
00:08
LOW
1019.8
16:12
DEWPOINT
AVERAGE
3.0
HIGH
8.6
13:02
LOW
-1.3
06:40
HUMIDITY
AVERAGE
64
HIGH
78
07:30
LOW
44
16:22
PRECIPITATION
RAIN HOUR
0.0
RAIN DAY
0.0
TEMPERATURE (°C)
LOW
2.3
HIGH
17.1
AVERAGE
9.8
PRESSURE (hpa)
LOW
1019.8
HIGH
1023.8
AVERAGE
1021.9
DEVICE